Madison, MN

6:45 PM CDT on September 16, 2014 (GMT -0500)
Canby | Change Station
CLOSE
Current Station
Airport
Location: Canby,
Elevation: 1194 ft
Nearby Weather Stations

Elev 1194 ft 44.73 °N, 96.26 °W | Updated 12 minutes ago

Overcast
Overcast
67 °F
Feels Like 67 °F
N
7
Wind Variable Wind from South

Today
High -- | Low -- °F
--% Chance of Precip.
Yesterday
High -- | Low -- °F
Precip. -- in
7:04 AM 7:33 PM
Last Quarter, 41% visible
Pressure 29.99 in
Visibility 10.0 miles
Clouds Overcast 6000 ft
Dew Point 48 °F
Humidity 51%
Rainfall 0.00 in
Snow Depth Not available.
UV 0 out of 12
Pollen 4.70 out of 12
Air Quality Not available.
Flu Activity Not available.
METAR KCNB 162333Z AUTO 19006KT 10SM OVC060 19/09 A2999 RMK AO2 T01940091

More Conditions Fewer Conditions

Pressure 29.99 in
Visibility 10.0 miles
Clouds Overcast 6000 ft
Dew Point 48 °F
Humidity 51%
Rainfall 0.00 in
Snow Depth Not available.
UV 0 out of 12
Pollen 4.70 out of 12
Air Quality Not available.
Flu Activity Not available.
METAR KCNB 162333Z AUTO 19006KT 10SM OVC060 19/09 A2999 RMK AO2 T01940091

More Conditions Fewer Conditions

10-Day Weather Forecast

Almanac

Astronomy

Sep. 16, 2014 Rise Set
Actual Time 7:04 AM CDT 7:33 PM CDT
Civil Twilight 6:35 AM CDT 8:02 PM CDT
Nautical Twilight 6:00 AM CDT 8:37 PM CDT
Astronomical Twilight 5:24 AM CDT 9:13 PM CDT
Moon 12:03 AM CDT 3:09 PM CDT
Length of Visible Light 13h 27m
Length of Day
12h 28m
Tomorrow will be 3m 7s shorter.
Last Quarter, 41% of the Moon is Illuminated
Today
Last Quarter
Sep 24
New
Oct 1
First Quarter
Oct 8
Full
Oct 15
Last Quarter

Today's Extremes

State Highs State Lows

Community

WunderPhotos

Upload Photos

1,753,917 photos uploaded!

Nearby

Snow Depth

Station Depth Elevation
No new snow has been reported.

Earthquake Activity

City Distance Mag. Time & Date
No recent earthquake activity has been reported nearby.
Minimum magnitude displayed is 2.5.

Coastal Water Temperatures

Place Temperature
No Stations Reporting

Nearby Weather Stations